Debbie — 3FSN4 — position and weather

sailwx.info

Track history (hours):
 
Tides and Currents Weather Stations Pressure Air Temp Water Temp Dewpoint Dewpoint Depression Visibility Wind Speed Wind Dir Waves Ship Positions

Debbie

Last reported at 2018-Aug-17 16:25 UTC. Time now 2018-Aug-19 15:20 UTC.
Position N 34°43' E 033°19'.

Length 126 m; draft 5.3 m.

Type: Cargo ship. MMSI: 373623000.

Date/timePositionNaut miles runAvg speedWind from/ knotsBaromVisibWave heightAir tempDewpointWater temp
2018-Aug-17 16:25N 34°43' E 033°19'130 5.1
2018-Aug-16 15:06N 32°55' E 034°45'1 6.7
2018-Aug-16 15:00N 32°55' E 034°46'3 6.9
2018-Aug-16 14:30N 32°54' E 034°50'3 6.5
2018-Aug-16 13:59N 32°53' E 034°54'3 6.6
2018-Aug-16 13:30N 32°52' E 034°57'  
2018-Aug-13 19:20N 32°51' E 034°60'0 1.2
2018-Aug-13 18:59N 32°52' E 034°60'0 0.0
2018-Aug-13 17:31N 32°52' E 034°60'0 0.1
2018-Aug-13 17:22N 32°52' E 034°60'0 0.0
2018-Aug-13 16:54N 32°52' E 034°60'0 0.0
2018-Aug-13 16:21N 32°52' E 034°60'0 0.0
2018-Aug-13 15:58N 32°52' E 034°60'0 0.0
2018-Aug-13 15:03N 32°52' E 034°60'0 0.0
2018-Aug-13 14:54N 32°52' E 034°60'0 0.0
2018-Aug-13 14:27N 32°52' E 034°60'0 0.0
2018-Aug-13 11:27N 32°52' E 034°60'0 0.0
2018-Aug-13 10:51N 32°52' E 034°60'0 0.0
2018-Aug-13 10:10N 32°52' E 034°60'0 0.0
2018-Aug-13 09:51N 32°52' E 034°60'0 0.0
2018-Aug-13 07:21N 32°52' E 034°60'0 0.0
2018-Aug-13 06:18N 32°52' E 034°60'0 0.0
2018-Aug-13 05:51N 32°52' E 034°60'0 0.0
2018-Aug-13 05:15N 32°52' E 034°60'0 0.0
2018-Aug-13 03:45N 32°52' E 034°60'0 0.0
2018-Aug-13 01:12N 32°52' E 034°60'0 0.0
2018-Aug-13 00:57N 32°52' E 034°60'0 0.0
2018-Aug-12 22:27N 32°52' E 034°60'0 0.0
2018-Aug-12 21:39N 32°52' E 034°60'0 0.0
2018-Aug-12 10:19N 32°52' E 034°60'0 0.0
2018-Aug-12 08:43N 32°52' E 034°60'0 0.0
2018-Aug-12 08:19N 32°52' E 034°60'0 0.0
2018-Aug-12 07:55N 32°52' E 034°60'0 0.0
2018-Aug-12 07:19N 32°52' E 034°60'0 0.0
2018-Aug-12 06:55N 32°52' E 034°60'0 0.0
2018-Aug-12 06:01N 32°52' E 034°60'0 0.0
2018-Aug-11 12:13N 32°52' E 034°60'0 0.0
2018-Aug-11 11:10N 32°52' E 034°60'0 0.0
2018-Aug-11 10:58N 32°52' E 034°60'0 0.0
2018-Aug-11 10:15N 32°52' E 034°60'0 0.0
2018-Aug-11 09:51N 32°52' E 034°60'0 0.0
2018-Aug-11 09:16N 32°52' E 034°60'0 0.0
2018-Aug-11 08:46N 32°52' E 034°60'0 0.0
2018-Aug-11 08:28N 32°52' E 034°60'0 0.0
2018-Aug-11 07:58N 32°52' E 034°60'0 0.0
2018-Aug-11 07:27N 32°52' E 034°60'0 0.0
2018-Aug-11 07:00N 32°52' E 034°60'0 0.0
2018-Aug-11 06:27N 32°52' E 034°60'0 0.0
2018-Aug-11 05:57N 32°52' E 034°60'0 0.1
2018-Aug-11 05:27N 32°52' E 035°00'1 2.3
2018-Aug-11 04:59N 32°52' E 034°59'2 5.1
2018-Aug-11 04:31N 32°53' E 034°56'3 5.8
2018-Aug-11 04:00N 32°54' E 034°53'3 5.1
2018-Aug-11 03:30N 32°54' E 034°50'3 6.4
2018-Aug-11 03:00N 32°54' E 034°46'3 6.3
2018-Aug-11 02:30N 32°55' E 034°42'3 6.3
2018-Aug-11 02:00N 32°56' E 034°39'23 5.7
2018-Aug-10 21:52N 33°12' E 034°19'2 6.1
2018-Aug-10 21:31N 33°14' E 034°18'3 6.1
2018-Aug-10 21:00N 33°17' E 034°16'3 6.2
2018-Aug-10 20:30N 33°20' E 034°14'3 6.3
2018-Aug-10 20:00N 33°22' E 034°12'3 6.3
2018-Aug-10 19:30N 33°25' E 034°11'3 6.3
2018-Aug-10 19:00N 33°28' E 034°09'3 6.3
2018-Aug-10 18:30N 33°31' E 034°07'3 5.3
2018-Aug-10 18:01N 33°33' E 034°06'1 1.2
2018-Aug-10 17:30N 33°34' E 034°05'4 6.6
2018-Aug-10 16:57N 33°37' E 034°03'3 6.5
2018-Aug-10 16:30N 33°39' E 034°02'3 6.5
2018-Aug-10 16:00N 33°42' E 034°00'30 6.5
2018-Aug-10 11:20N 34°09' E 033°43'2 6.5
2018-Aug-10 11:00N 34°11' E 033°42'4 6.5
2018-Aug-10 10:22N 34°15' E 033°40'2 6.4
2018-Aug-10 10:00N 34°17' E 033°39'3 6.4
2018-Aug-10 09:30N 34°20' E 033°37'3 6.4
2018-Aug-10 09:00N 34°22' E 033°34'3 6.4
2018-Aug-10 08:30N 34°25' E 033°32'3 6.5
2018-Aug-10 08:01N 34°28' E 033°31'3 6.4
2018-Aug-10 07:30N 34°31' E 033°29'3 6.5
2018-Aug-10 07:00N 34°33' E 033°27'3 6.7
2018-Aug-10 06:30N 34°36' E 033°25'3 6.6
2018-Aug-10 06:00N 34°39' E 033°23'3 6.5
2018-Aug-10 05:30N 34°42' E 033°21'2 3.6
2018-Aug-10 04:58N 34°43' E 033°19'0 0.0
2018-Aug-10 04:28N 34°43' E 033°19'0 0.0
2018-Aug-10 03:52N 34°43' E 033°19'2 1.5
2018-Aug-10 02:25N 34°43' E 033°22'1 1.9
2018-Aug-10 01:58N 34°42' E 033°20'1 3.0
2018-Aug-10 01:29N 34°43' E 033°19'4 7.5
2018-Aug-10 00:53N 34°39' E 033°20'614.0
2018-Aug-10 00:26N 34°33' E 033°18'11 4.5
2018-Aug-09 21:54N 34°44' E 033°19'1 2.3
2018-Aug-09 21:28N 34°43' E 033°19'0 0.0
2018-Aug-09 17:54N 34°43' E 033°19'0 0.3
2018-Aug-09 17:27N 34°43' E 033°19'0 0.0
2018-Aug-09 16:50N 34°43' E 033°19'0 0.0
2018-Aug-09 16:30N 34°43' E 033°19'0 0.0
2018-Aug-09 15:49N 34°43' E 033°19'0 0.0
2018-Aug-09 15:29N 34°43' E 033°19'0 0.3
2018-Aug-09 14:59N 34°43' E 033°19'0 0.1
2018-Aug-09 12:31N 34°43' E 033°19'0 0.0
2018-Aug-09 12:28N 34°43' E 033°19'0 0.0
2018-Aug-09 08:42N 34°43' E 033°19'0 0.0
2018-Aug-09 08:21N 34°43' E 033°19'0 0.0
2018-Aug-09 07:54N 34°43' E 033°19'0 0.0
2018-Aug-09 07:30N 34°43' E 033°19'0 0.0
2018-Aug-09 07:00N 34°43' E 033°19'0 0.0
2018-Aug-09 06:30N 34°43' E 033°19'0 0.0
2018-Aug-09 06:00N 34°43' E 033°19'0 0.0
2018-Aug-09 05:30N 34°43' E 033°19'0 0.0
2018-Aug-09 05:00N 34°43' E 033°19'0 0.0
2018-Aug-09 04:30N 34°43' E 033°19'0 0.0
2018-Aug-09 03:59N 34°43' E 033°19'0 0.0
2018-Aug-09 03:29N 34°43' E 033°19'0 0.0
2018-Aug-09 02:59N 34°43' E 033°19'0 0.0
2018-Aug-09 02:29N 34°43' E 033°19'0 0.0
2018-Aug-09 01:59N 34°43' E 033°19'0 0.0
2018-Aug-09 00:32N 34°43' E 033°19'0 0.1
2018-Aug-09 00:15N 34°43' E 033°19'0 0.0
2018-Aug-09 00:00N 34°43' E 033°19'0 0.0
2018-Aug-08 23:28N 34°43' E 033°19'0 0.0
2018-Aug-08 22:58N 34°43' E 033°19'0 0.0
2018-Aug-08 22:30N 34°43' E 033°19'0 0.0
2018-Aug-08 22:00N 34°43' E 033°19'0 0.0
2018-Aug-08 21:30N 34°43' E 033°19'2 3.8
2018-Aug-08 20:59N 34°45' E 033°17'1 2.8
2018-Aug-08 20:30N 34°44' E 033°19'1 1.6
2018-Aug-08 19:58N 34°43' E 033°19'0 0.2
2018-Aug-08 19:25N 34°43' E 033°19'0 0.0
2018-Aug-08 18:49N 34°43' E 033°19'0 0.1
2018-Aug-08 18:29N 34°43' E 033°19'0 0.2
2018-Aug-08 17:59N 34°43' E 033°19'0 0.0
2018-Aug-08 17:29N 34°43' E 033°19'0 0.0
2018-Aug-08 16:59N 34°43' E 033°19'0 0.0
2018-Aug-08 16:28N 34°43' E 033°19'0 0.0
2018-Aug-08 12:45N 34°43' E 033°19'0 0.2
2018-Aug-08 12:30N 34°43' E 033°19'0 0.0
2018-Aug-08 09:01N 34°43' E 033°19'0 0.0
2018-Aug-08 08:58N 34°43' E 033°19'0 0.0
2018-Aug-08 08:28N 34°43' E 033°19'0 0.0
2018-Aug-08 07:55N 34°43' E 033°19'0 0.0
2018-Aug-08 07:10N 34°43' E 033°19'1 0.3
2018-Aug-08 04:39N 34°43' E 033°20'1 6.1
2018-Aug-08 04:30N 34°42' E 033°21'2 4.2
2018-Aug-08 03:58N 34°40' E 033°21'0 0.2
2018-Aug-08 03:30N 34°40' E 033°21'0 0.3
2018-Aug-08 02:59N 34°40' E 033°22'  
Track history (hours):
 
Tides and Currents Weather Stations Pressure Air Temp Water Temp Dewpoint Dewpoint Depression Visibility Wind Speed Wind Dir Waves Ship Positions

Debbie

Last reported at 2018-Aug-17 16:25 UTC. Time now 2018-Aug-19 15:20 UTC.
Position N 34°43' E 033°19'.

Length 126 m; draft 5.3 m.

Type: Cargo ship. MMSI: 373623000.

Date/timePositionNaut miles runAvg speedWind from/ knotsBaromVisibWave heightAir tempDewpointWater temp
2018-Aug-17 16:25N 34°43' E 033°19'130 5.1
2018-Aug-16 15:06N 32°55' E 034°45'1 6.7
2018-Aug-16 15:00N 32°55' E 034°46'3 6.9
2018-Aug-16 14:30N 32°54' E 034°50'3 6.5
2018-Aug-16 13:59N 32°53' E 034°54'3 6.6
2018-Aug-16 13:30N 32°52' E 034°57'  
2018-Aug-13 19:20N 32°51' E 034°60'0 1.2
2018-Aug-13 18:59N 32°52' E 034°60'0 0.0
2018-Aug-13 17:31N 32°52' E 034°60'0 0.1
2018-Aug-13 17:22N 32°52' E 034°60'0 0.0
2018-Aug-13 16:54N 32°52' E 034°60'0 0.0
2018-Aug-13 16:21N 32°52' E 034°60'0 0.0
2018-Aug-13 15:58N 32°52' E 034°60'0 0.0
2018-Aug-13 15:03N 32°52' E 034°60'0 0.0
2018-Aug-13 14:54N 32°52' E 034°60'0 0.0
2018-Aug-13 14:27N 32°52' E 034°60'0 0.0
2018-Aug-13 11:27N 32°52' E 034°60'0 0.0
2018-Aug-13 10:51N 32°52' E 034°60'0 0.0
2018-Aug-13 10:10N 32°52' E 034°60'0 0.0
2018-Aug-13 09:51N 32°52' E 034°60'0 0.0
2018-Aug-13 07:21N 32°52' E 034°60'0 0.0
2018-Aug-13 06:18N 32°52' E 034°60'0 0.0
2018-Aug-13 05:51N 32°52' E 034°60'0 0.0
2018-Aug-13 05:15N 32°52' E 034°60'0 0.0
2018-Aug-13 03:45N 32°52' E 034°60'0 0.0
2018-Aug-13 01:12N 32°52' E 034°60'0 0.0
2018-Aug-13 00:57N 32°52' E 034°60'0 0.0
2018-Aug-12 22:27N 32°52' E 034°60'0 0.0
2018-Aug-12 21:39N 32°52' E 034°60'0 0.0
2018-Aug-12 10:19N 32°52' E 034°60'0 0.0
2018-Aug-12 08:43N 32°52' E 034°60'0 0.0
2018-Aug-12 08:19N 32°52' E 034°60'0 0.0
2018-Aug-12 07:55N 32°52' E 034°60'0 0.0
2018-Aug-12 07:19N 32°52' E 034°60'0 0.0
2018-Aug-12 06:55N 32°52' E 034°60'0 0.0
2018-Aug-12 06:01N 32°52' E 034°60'0 0.0
2018-Aug-11 12:13N 32°52' E 034°60'0 0.0
2018-Aug-11 11:10N 32°52' E 034°60'0 0.0
2018-Aug-11 10:58N 32°52' E 034°60'0 0.0
2018-Aug-11 10:15N 32°52' E 034°60'0 0.0
2018-Aug-11 09:51N 32°52' E 034°60'0 0.0
2018-Aug-11 09:16N 32°52' E 034°60'0 0.0
2018-Aug-11 08:46N 32°52' E 034°60'0 0.0
2018-Aug-11 08:28N 32°52' E 034°60'0 0.0
2018-Aug-11 07:58N 32°52' E 034°60'0 0.0
2018-Aug-11 07:27N 32°52' E 034°60'0 0.0
2018-Aug-11 07:00N 32°52' E 034°60'0 0.0
2018-Aug-11 06:27N 32°52' E 034°60'0 0.0
2018-Aug-11 05:57N 32°52' E 034°60'0 0.1
2018-Aug-11 05:27N 32°52' E 035°00'1 2.3
2018-Aug-11 04:59N 32°52' E 034°59'2 5.1
2018-Aug-11 04:31N 32°53' E 034°56'3 5.8
2018-Aug-11 04:00N 32°54' E 034°53'3 5.1
2018-Aug-11 03:30N 32°54' E 034°50'3 6.4
2018-Aug-11 03:00N 32°54' E 034°46'3 6.3
2018-Aug-11 02:30N 32°55' E 034°42'3 6.3
2018-Aug-11 02:00N 32°56' E 034°39'23 5.7
2018-Aug-10 21:52N 33°12' E 034°19'2 6.1
2018-Aug-10 21:31N 33°14' E 034°18'3 6.1
2018-Aug-10 21:00N 33°17' E 034°16'3 6.2
2018-Aug-10 20:30N 33°20' E 034°14'3 6.3
2018-Aug-10 20:00N 33°22' E 034°12'3 6.3
2018-Aug-10 19:30N 33°25' E 034°11'3 6.3
2018-Aug-10 19:00N 33°28' E 034°09'3 6.3
2018-Aug-10 18:30N 33°31' E 034°07'3 5.3
2018-Aug-10 18:01N 33°33' E 034°06'1 1.2
2018-Aug-10 17:30N 33°34' E 034°05'4 6.6
2018-Aug-10 16:57N 33°37' E 034°03'3 6.5
2018-Aug-10 16:30N 33°39' E 034°02'3 6.5
2018-Aug-10 16:00N 33°42' E 034°00'30 6.5
2018-Aug-10 11:20N 34°09' E 033°43'2 6.5
2018-Aug-10 11:00N 34°11' E 033°42'4 6.5
2018-Aug-10 10:22N 34°15' E 033°40'2 6.4
2018-Aug-10 10:00N 34°17' E 033°39'3 6.4
2018-Aug-10 09:30N 34°20' E 033°37'3 6.4
2018-Aug-10 09:00N 34°22' E 033°34'3 6.4
2018-Aug-10 08:30N 34°25' E 033°32'3 6.5
2018-Aug-10 08:01N 34°28' E 033°31'3 6.4
2018-Aug-10 07:30N 34°31' E 033°29'3 6.5
2018-Aug-10 07:00N 34°33' E 033°27'3 6.7
2018-Aug-10 06:30N 34°36' E 033°25'3 6.6
2018-Aug-10 06:00N 34°39' E 033°23'3 6.5
2018-Aug-10 05:30N 34°42' E 033°21'2 3.6
2018-Aug-10 04:58N 34°43' E 033°19'0 0.0
2018-Aug-10 04:28N 34°43' E 033°19'0 0.0
2018-Aug-10 03:52N 34°43' E 033°19'2 1.5
2018-Aug-10 02:25N 34°43' E 033°22'1 1.9
2018-Aug-10 01:58N 34°42' E 033°20'1 3.0
2018-Aug-10 01:29N 34°43' E 033°19'4 7.5
2018-Aug-10 00:53N 34°39' E 033°20'614.0
2018-Aug-10 00:26N 34°33' E 033°18'11 4.5
2018-Aug-09 21:54N 34°44' E 033°19'1 2.3
2018-Aug-09 21:28N 34°43' E 033°19'0 0.0
2018-Aug-09 17:54N 34°43' E 033°19'0 0.3
2018-Aug-09 17:27N 34°43' E 033°19'0 0.0
2018-Aug-09 16:50N 34°43' E 033°19'0 0.0
2018-Aug-09 16:30N 34°43' E 033°19'0 0.0
2018-Aug-09 15:49N 34°43' E 033°19'0 0.0
2018-Aug-09 15:29N 34°43' E 033°19'0 0.3
2018-Aug-09 14:59N 34°43' E 033°19'0 0.1
2018-Aug-09 12:31N 34°43' E 033°19'0 0.0
2018-Aug-09 12:28N 34°43' E 033°19'0 0.0
2018-Aug-09 08:42N 34°43' E 033°19'0 0.0
2018-Aug-09 08:21N 34°43' E 033°19'0 0.0
2018-Aug-09 07:54N 34°43' E 033°19'0 0.0
2018-Aug-09 07:30N 34°43' E 033°19'0 0.0
2018-Aug-09 07:00N 34°43' E 033°19'0 0.0
2018-Aug-09 06:30N 34°43' E 033°19'0 0.0
2018-Aug-09 06:00N 34°43' E 033°19'0 0.0
2018-Aug-09 05:30N 34°43' E 033°19'0 0.0
2018-Aug-09 05:00N 34°43' E 033°19'0 0.0
2018-Aug-09 04:30N 34°43' E 033°19'0 0.0
2018-Aug-09 03:59N 34°43' E 033°19'0 0.0
2018-Aug-09 03:29N 34°43' E 033°19'0 0.0
2018-Aug-09 02:59N 34°43' E 033°19'0 0.0
2018-Aug-09 02:29N 34°43' E 033°19'0 0.0
2018-Aug-09 01:59N 34°43' E 033°19'0 0.0
2018-Aug-09 00:32N 34°43' E 033°19'0 0.1
2018-Aug-09 00:15N 34°43' E 033°19'0 0.0
2018-Aug-09 00:00N 34°43' E 033°19'0 0.0
2018-Aug-08 23:28N 34°43' E 033°19'0 0.0
2018-Aug-08 22:58N 34°43' E 033°19'0 0.0
2018-Aug-08 22:30N 34°43' E 033°19'0 0.0
2018-Aug-08 22:00N 34°43' E 033°19'0 0.0
2018-Aug-08 21:30N 34°43' E 033°19'2 3.8
2018-Aug-08 20:59N 34°45' E 033°17'1 2.8
2018-Aug-08 20:30N 34°44' E 033°19'1 1.6
2018-Aug-08 19:58N 34°43' E 033°19'0 0.2
2018-Aug-08 19:25N 34°43' E 033°19'0 0.0
2018-Aug-08 18:49N 34°43' E 033°19'0 0.1
2018-Aug-08 18:29N 34°43' E 033°19'0 0.2
2018-Aug-08 17:59N 34°43' E 033°19'0 0.0
2018-Aug-08 17:29N 34°43' E 033°19'0 0.0
2018-Aug-08 16:59N 34°43' E 033°19'0 0.0
2018-Aug-08 16:28N 34°43' E 033°19'0 0.0
2018-Aug-08 12:45N 34°43' E 033°19'0 0.2
2018-Aug-08 12:30N 34°43' E 033°19'0 0.0
2018-Aug-08 09:01N 34°43' E 033°19'0 0.0
2018-Aug-08 08:58N 34°43' E 033°19'0 0.0
2018-Aug-08 08:28N 34°43' E 033°19'0 0.0
2018-Aug-08 07:55N 34°43' E 033°19'0 0.0
2018-Aug-08 07:10N 34°43' E 033°19'1 0.3
2018-Aug-08 04:39N 34°43' E 033°20'1 6.1
2018-Aug-08 04:30N 34°42' E 033°21'2 4.2
2018-Aug-08 03:58N 34°40' E 033°21'0 0.2
2018-Aug-08 03:30N 34°40' E 033°21'0 0.3
2018-Aug-08 02:59N 34°40' E 033°22'  

Dump ship's entire track history